Diekirch, Luxembourg
Current Conditions -  °F | °C
As of 3:50 AM on Thursday 23 Oct 2014 (Local Time) from ELLX Reporting Station
NA  
Wind Chill: 36°   Ceiling: NA
Heat Index: 41°   Visibility: 5mi
Dew Point: 39°   Wind: 7mph
Humidity: 93%   Direction: 260°W
Pressure: 30.21"   Gusts: NA
Location:  49.87°N, 6.16°E
Report Text: ELLX 230150Z AUTO 26006KT 8000 NDV 05/04 Q1023
Loading
Personal Weather Stations






























Interactive Weather Map
Tropical Storm Tracking
New forecast layout! Learn more

10-Day Weather Forecast

Advertisements
Track Severe Weather on mobile